New Frontier — 3FEB3 — position and weather

sailwx.info

Track history (hours):
 
Tides and Currents Weather Stations Pressure Air Temp Water Temp Dewpoint Dewpoint Depression Visibility Wind Speed Wind Dir Waves Ship Positions

New Frontier

Last reported at 2018-Jan-22 17:28 UTC. Time now 2018-Jan-23 00:14 UTC.
Position N 49°11' W 123°54'.

Length 176 m; draft 6.1 m.

Type: Cargo ship. MMSI: 351004000.

Date/timePositionNaut miles runAvg speedWind from/ knotsBaromVisibWave heightAir tempDewpointWater temp
2018-Jan-22 17:28N 49°11' W 123°54'0 0.0
2018-Jan-22 10:07N 49°11' W 123°54'0 0.0
2018-Jan-22 09:58N 49°11' W 123°54'0 0.0
2018-Jan-21 16:13N 49°11' W 123°54'0 0.0
2018-Jan-21 11:10N 49°11' W 123°54'0 0.0
2018-Jan-21 08:49N 49°11' W 123°55'0 0.0
2018-Jan-21 08:13N 49°11' W 123°55'0 0.0
2018-Jan-21 07:46N 49°11' W 123°55'0 0.0
2018-Jan-20 15:43N 49°11' W 123°54'0 0.0
2018-Jan-20 15:04N 49°11' W 123°54'0 0.0
2018-Jan-20 14:43N 49°11' W 123°54'0 0.0
2018-Jan-20 09:19N 49°11' W 123°54'0 0.0
2018-Jan-19 16:25N 49°11' W 123°55'0 0.1
2018-Jan-19 15:55N 49°11' W 123°54'1 0.1
2018-Jan-19 05:40N 49°12' W 123°54'2 6.4
2018-Jan-19 05:26N 49°13' W 123°52'4 9.4
2018-Jan-19 05:00N 49°15' W 123°46'611.1
2018-Jan-19 04:29N 49°16' W 123°38'613.4
2018-Jan-19 04:00N 49°17' W 123°28'713.3
2018-Jan-19 03:29N 49°19' W 123°18'3 4.6
2018-Jan-19 02:52N 49°20' W 123°14'0 0.1
2018-Jan-19 02:28N 49°20' W 123°14'0 0.1
2018-Jan-19 01:58N 49°20' W 123°14'0 0.1
2018-Jan-19 01:19N 49°20' W 123°14'0 0.1
2018-Jan-19 00:58N 49°20' W 123°14'0 0.1
2018-Jan-19 00:19N 49°20' W 123°14'0 0.1
2018-Jan-18 23:55N 49°20' W 123°14'0 0.1
2018-Jan-18 23:22N 49°20' W 123°14'0 0.1
2018-Jan-18 22:55N 49°20' W 123°14'0 0.1
2018-Jan-18 22:28N 49°20' W 123°14'0 0.0
2018-Jan-18 21:55N 49°20' W 123°14'0 0.0
2018-Jan-18 21:28N 49°20' W 123°14'0 0.0
2018-Jan-18 20:58N 49°20' W 123°14'0 0.1
2018-Jan-18 20:28N 49°20' W 123°14'0 0.0
2018-Jan-18 19:58N 49°20' W 123°14'0 0.0
2018-Jan-18 19:28N 49°20' W 123°14'0 0.0
2018-Jan-18 18:55N 49°20' W 123°14'0 0.0
2018-Jan-18 18:28N 49°20' W 123°14'0 0.0
2018-Jan-18 17:58N 49°20' W 123°14'0 0.1
2018-Jan-18 17:19N 49°20' W 123°14'0 0.0
2018-Jan-18 16:58N 49°20' W 123°14'0 0.0
2018-Jan-18 16:28N 49°20' W 123°14'0 0.0
2018-Jan-18 15:58N 49°20' W 123°14'0 0.1
2018-Jan-18 15:19N 49°20' W 123°14'0 0.1
2018-Jan-18 14:52N 49°20' W 123°14'0 0.1
2018-Jan-18 14:28N 49°20' W 123°14'0 0.1
2018-Jan-18 13:55N 49°20' W 123°14'0 0.1
2018-Jan-18 13:28N 49°20' W 123°14'0 0.1
2018-Jan-18 12:43N 49°20' W 123°14'0 0.0
2018-Jan-18 12:28N 49°20' W 123°14'0 0.0
2018-Jan-18 11:55N 49°20' W 123°14'0 0.1
2018-Jan-18 11:28N 49°20' W 123°14'0 0.0
2018-Jan-18 10:58N 49°20' W 123°14'0 0.0
2018-Jan-18 10:25N 49°20' W 123°14'0 0.1
2018-Jan-18 09:58N 49°20' W 123°14'0 0.0
2018-Jan-18 09:28N 49°20' W 123°14'0 0.0
2018-Jan-18 08:55N 49°20' W 123°14'0 0.1
2018-Jan-18 08:25N 49°20' W 123°14'0 0.1
2018-Jan-18 07:58N 49°20' W 123°14'0 0.0
2018-Jan-18 07:28N 49°20' W 123°14'0 0.0
2018-Jan-18 06:58N 49°20' W 123°14'0 0.1
2018-Jan-18 06:22N 49°20' W 123°14'0 0.1
2018-Jan-18 05:58N 49°20' W 123°14'0 0.0
2018-Jan-18 05:25N 49°20' W 123°14'0 0.0
2018-Jan-18 04:58N 49°20' W 123°14'0 0.0
2018-Jan-18 04:25N 49°20' W 123°14'0 0.0
2018-Jan-18 03:58N 49°20' W 123°14'0 0.0
2018-Jan-18 03:25N 49°20' W 123°14'0 0.1
2018-Jan-18 02:52N 49°20' W 123°14'0 0.1
2018-Jan-18 02:13N 49°20' W 123°14'0 0.0
2018-Jan-18 01:58N 49°20' W 123°14'0 0.0
2018-Jan-18 01:28N 49°20' W 123°14'0 0.0
2018-Jan-18 00:58N 49°20' W 123°14'0 0.0
2018-Jan-17 23:58N 49°20' W 123°14'0 0.0
2018-Jan-17 23:55N 49°20' W 123°14'  
Track history (hours):
 
Tides and Currents Weather Stations Pressure Air Temp Water Temp Dewpoint Dewpoint Depression Visibility Wind Speed Wind Dir Waves Ship Positions

New Frontier

Last reported at 2018-Jan-22 17:28 UTC. Time now 2018-Jan-23 00:14 UTC.
Position N 49°11' W 123°54'.

Length 176 m; draft 6.1 m.

Type: Cargo ship. MMSI: 351004000.

Date/timePositionNaut miles runAvg speedWind from/ knotsBaromVisibWave heightAir tempDewpointWater temp
2018-Jan-22 17:28N 49°11' W 123°54'0 0.0
2018-Jan-22 10:07N 49°11' W 123°54'0 0.0
2018-Jan-22 09:58N 49°11' W 123°54'0 0.0
2018-Jan-21 16:13N 49°11' W 123°54'0 0.0
2018-Jan-21 11:10N 49°11' W 123°54'0 0.0
2018-Jan-21 08:49N 49°11' W 123°55'0 0.0
2018-Jan-21 08:13N 49°11' W 123°55'0 0.0
2018-Jan-21 07:46N 49°11' W 123°55'0 0.0
2018-Jan-20 15:43N 49°11' W 123°54'0 0.0
2018-Jan-20 15:04N 49°11' W 123°54'0 0.0
2018-Jan-20 14:43N 49°11' W 123°54'0 0.0
2018-Jan-20 09:19N 49°11' W 123°54'0 0.0
2018-Jan-19 16:25N 49°11' W 123°55'0 0.1
2018-Jan-19 15:55N 49°11' W 123°54'1 0.1
2018-Jan-19 05:40N 49°12' W 123°54'2 6.4
2018-Jan-19 05:26N 49°13' W 123°52'4 9.4
2018-Jan-19 05:00N 49°15' W 123°46'611.1
2018-Jan-19 04:29N 49°16' W 123°38'613.4
2018-Jan-19 04:00N 49°17' W 123°28'713.3
2018-Jan-19 03:29N 49°19' W 123°18'3 4.6
2018-Jan-19 02:52N 49°20' W 123°14'0 0.1
2018-Jan-19 02:28N 49°20' W 123°14'0 0.1
2018-Jan-19 01:58N 49°20' W 123°14'0 0.1
2018-Jan-19 01:19N 49°20' W 123°14'0 0.1
2018-Jan-19 00:58N 49°20' W 123°14'0 0.1
2018-Jan-19 00:19N 49°20' W 123°14'0 0.1
2018-Jan-18 23:55N 49°20' W 123°14'0 0.1
2018-Jan-18 23:22N 49°20' W 123°14'0 0.1
2018-Jan-18 22:55N 49°20' W 123°14'0 0.1
2018-Jan-18 22:28N 49°20' W 123°14'0 0.0
2018-Jan-18 21:55N 49°20' W 123°14'0 0.0
2018-Jan-18 21:28N 49°20' W 123°14'0 0.0
2018-Jan-18 20:58N 49°20' W 123°14'0 0.1
2018-Jan-18 20:28N 49°20' W 123°14'0 0.0
2018-Jan-18 19:58N 49°20' W 123°14'0 0.0
2018-Jan-18 19:28N 49°20' W 123°14'0 0.0
2018-Jan-18 18:55N 49°20' W 123°14'0 0.0
2018-Jan-18 18:28N 49°20' W 123°14'0 0.0
2018-Jan-18 17:58N 49°20' W 123°14'0 0.1
2018-Jan-18 17:19N 49°20' W 123°14'0 0.0
2018-Jan-18 16:58N 49°20' W 123°14'0 0.0
2018-Jan-18 16:28N 49°20' W 123°14'0 0.0
2018-Jan-18 15:58N 49°20' W 123°14'0 0.1
2018-Jan-18 15:19N 49°20' W 123°14'0 0.1
2018-Jan-18 14:52N 49°20' W 123°14'0 0.1
2018-Jan-18 14:28N 49°20' W 123°14'0 0.1
2018-Jan-18 13:55N 49°20' W 123°14'0 0.1
2018-Jan-18 13:28N 49°20' W 123°14'0 0.1
2018-Jan-18 12:43N 49°20' W 123°14'0 0.0
2018-Jan-18 12:28N 49°20' W 123°14'0 0.0
2018-Jan-18 11:55N 49°20' W 123°14'0 0.1
2018-Jan-18 11:28N 49°20' W 123°14'0 0.0
2018-Jan-18 10:58N 49°20' W 123°14'0 0.0
2018-Jan-18 10:25N 49°20' W 123°14'0 0.1
2018-Jan-18 09:58N 49°20' W 123°14'0 0.0
2018-Jan-18 09:28N 49°20' W 123°14'0 0.0
2018-Jan-18 08:55N 49°20' W 123°14'0 0.1
2018-Jan-18 08:25N 49°20' W 123°14'0 0.1
2018-Jan-18 07:58N 49°20' W 123°14'0 0.0
2018-Jan-18 07:28N 49°20' W 123°14'0 0.0
2018-Jan-18 06:58N 49°20' W 123°14'0 0.1
2018-Jan-18 06:22N 49°20' W 123°14'0 0.1
2018-Jan-18 05:58N 49°20' W 123°14'0 0.0
2018-Jan-18 05:25N 49°20' W 123°14'0 0.0
2018-Jan-18 04:58N 49°20' W 123°14'0 0.0
2018-Jan-18 04:25N 49°20' W 123°14'0 0.0
2018-Jan-18 03:58N 49°20' W 123°14'0 0.0
2018-Jan-18 03:25N 49°20' W 123°14'0 0.1
2018-Jan-18 02:52N 49°20' W 123°14'0 0.1
2018-Jan-18 02:13N 49°20' W 123°14'0 0.0
2018-Jan-18 01:58N 49°20' W 123°14'0 0.0
2018-Jan-18 01:28N 49°20' W 123°14'0 0.0
2018-Jan-18 00:58N 49°20' W 123°14'0 0.0
2018-Jan-17 23:58N 49°20' W 123°14'0 0.0
2018-Jan-17 23:55N 49°20' W 123°14'  

Dump ship's entire track history